createdAt,value
2017-11-23T20:16:04.265Z,93.10
2017-11-23T20:17:11.561Z,93.20
2017-11-23T20:18:17.035Z,93.20
2017-11-23T20:19:21.577Z,93.20
2017-11-23T20:20:26.121Z,93.20
2017-11-23T20:21:31.133Z,93.20
2017-11-23T20:22:35.857Z,93.20
2017-11-23T20:23:41.027Z,93.10
2017-11-23T20:24:46.293Z,93.10
2017-11-23T20:25:50.676Z,93.10
2017-11-23T20:26:55.418Z,93.20
2017-11-23T20:27:59.920Z,93.20
2017-11-23T20:29:04.277Z,93.20
2017-11-23T20:30:09.431Z,93.30
2017-11-23T20:31:14.814Z,93.30
2017-11-23T20:32:20.176Z,93.40
2017-11-23T20:33:25.461Z,93.50
2017-11-23T20:34:29.807Z,93.50
2017-11-23T20:35:34.935Z,93.60
2017-11-23T20:36:40.146Z,93.50
2017-11-23T20:37:45.810Z,93.60
2017-11-23T20:38:50.187Z,93.60
2017-11-23T20:39:55.411Z,93.50
2017-11-23T20:40:59.818Z,93.40
2017-11-23T20:42:04.424Z,93.40
2017-11-23T20:43:08.758Z,93.40
2017-11-23T20:44:13.888Z,94.20
2017-11-23T20:45:19.054Z,93.90
2017-11-23T20:46:23.386Z,94.20
2017-11-23T20:47:27.840Z,94.50
2017-11-23T20:48:32.982Z,94.00
2017-11-23T20:49:38.382Z,94.00
2017-11-23T20:50:42.891Z,93.40
2017-11-23T20:51:47.213Z,93.20
2017-11-23T20:52:52.744Z,92.90
2017-11-23T20:53:57.842Z,92.30
2017-11-23T20:55:02.429Z,92.30
2017-11-23T20:56:06.805Z,92.00
2017-11-23T20:57:12.094Z,91.50
2017-11-23T20:58:16.650Z,91.50
2017-11-23T20:59:21.078Z,90.80
2017-11-23T21:00:26.839Z,90.70
2017-11-23T21:01:31.293Z,90.90
2017-11-23T21:02:36.479Z,91.20
2017-11-23T21:03:41.623Z,90.60
2017-11-23T21:04:46.063Z,90.60
2017-11-23T21:05:51.241Z,91.00
2017-11-23T21:06:55.856Z,91.10
2017-11-23T21:08:00.218Z,91.20
2017-11-23T21:09:06.099Z,90.40
2017-11-23T21:10:11.444Z,90.40
2017-11-23T21:11:17.107Z,90.70
2017-11-23T21:12:22.784Z,90.70
2017-11-23T21:13:27.388Z,89.90
2017-11-23T21:14:32.749Z,90.10
2017-11-23T21:15:37.629Z,89.90
2017-11-23T21:16:42.650Z,89.30
2017-11-23T21:17:47.935Z,88.80
2017-11-23T21:18:55.133Z,88.60
2017-11-23T21:20:00.401Z,87.40
2017-11-23T21:21:06.997Z,87.10
2017-11-23T21:22:12.789Z,87.10
2017-11-23T21:23:19.921Z,85.60
2017-11-23T21:24:24.720Z,85.60
2017-11-23T21:25:30.687Z,86.40
2017-11-23T21:26:36.631Z,86.50
2017-11-23T21:27:42.124Z,86.30
2017-11-23T21:28:48.947Z,85.50
2017-11-23T21:29:53.688Z,85.60
2017-11-23T21:30:58.403Z,85.80
2017-11-23T21:32:04.263Z,85.30
2017-11-23T21:33:10.576Z,85.20
2017-11-23T21:34:15.075Z,85.20
2017-11-23T21:35:19.735Z,84.80
2017-11-23T21:36:25.740Z,84.70
2017-11-23T21:37:30.359Z,84.70
2017-11-23T21:38:35.211Z,84.30
2017-11-23T21:39:40.271Z,83.70
2017-11-23T21:40:44.665Z,83.80
2017-11-23T21:41:49.030Z,83.60
2017-11-23T21:42:54.310Z,83.60
2017-11-23T21:43:58.714Z,83.50
2017-11-23T21:45:03.186Z,83.30
2017-11-23T21:46:07.512Z,82.90
2017-11-23T21:47:12.739Z,82.50
2017-11-23T21:48:17.138Z,82.50
2017-11-23T21:49:22.835Z,82.30
2017-11-23T21:50:27.151Z,82.30
2017-11-23T21:51:31.558Z,81.80
2017-11-23T21:52:35.947Z,81.70
2017-11-23T21:53:40.399Z,81.90
2017-11-23T21:54:45.251Z,82.00
2017-11-23T21:55:51.647Z,83.10
2017-11-23T21:56:55.999Z,82.90
2017-11-23T21:58:02.305Z,83.60
2017-11-23T21:59:06.801Z,83.60
2017-11-23T22:00:11.558Z,84.10
2017-11-23T22:01:16.305Z,84.50
2017-11-23T22:02:21.592Z,84.80
2017-11-23T22:03:26.912Z,85.20
2017-11-23T22:04:34.293Z,85.50
2017-11-23T22:05:38.680Z,85.60
2017-11-23T22:06:44.850Z,86.00
2017-11-23T22:07:49.222Z,86.00
2017-11-23T22:08:56.427Z,86.00
2017-11-23T22:10:00.822Z,85.90
2017-11-23T22:11:05.137Z,86.10
2017-11-23T22:12:09.544Z,86.40
2017-11-23T22:13:13.925Z,86.60
2017-11-23T22:14:18.511Z,86.60
2017-11-23T22:15:23.013Z,86.50
2017-11-23T22:16:27.388Z,86.80
2017-11-23T22:17:31.793Z,86.90
2017-11-23T22:18:37.112Z,86.90
2017-11-23T22:19:42.275Z,87.10
2017-11-23T22:20:46.613Z,87.10
2017-11-23T22:21:50.998Z,87.10
2017-11-23T22:22:55.468Z,87.00
2017-11-23T22:24:00.971Z,87.50
2017-11-23T22:25:05.393Z,87.50
2017-11-23T22:26:09.719Z,87.60
2017-11-23T22:27:14.838Z,87.20
2017-11-23T22:28:19.284Z,87.20
2017-11-23T22:29:24.170Z,87.00
2017-11-23T22:30:29.330Z,87.00
2017-11-23T22:31:33.660Z,87.00
2017-11-23T22:32:38.121Z,87.10
2017-11-23T22:33:43.244Z,87.10
2017-11-23T22:34:47.857Z,86.90
2017-11-23T22:35:53.192Z,87.30
2017-11-23T22:36:58.359Z,87.00
2017-11-23T22:38:02.712Z,87.00
2017-11-23T22:39:07.016Z,87.00
2017-11-23T22:40:11.417Z,87.00
2017-11-23T22:41:16.178Z,87.00
2017-11-23T22:42:20.599Z,87.10
2017-11-23T22:43:25.006Z,87.30
2017-11-23T22:44:29.429Z,87.30
2017-11-23T22:45:34.717Z,87.30
2017-11-23T22:46:39.348Z,86.90
2017-11-23T22:47:44.605Z,86.80
2017-11-23T22:48:49.117Z,86.40
2017-11-23T22:49:53.604Z,86.90
2017-11-23T22:50:58.058Z,87.00
2017-11-23T22:52:02.465Z,87.00
2017-11-23T22:53:07.182Z,86.90
2017-11-23T22:54:11.515Z,86.90
2017-11-23T22:55:16.213Z,87.20
2017-11-23T22:56:20.581Z,87.10
2017-11-23T22:57:25.633Z,87.10
2017-11-23T22:58:29.968Z,86.80
2017-11-23T22:59:34.667Z,86.70
2017-11-23T23:00:39.274Z,86.50
2017-11-23T23:01:43.571Z,86.40
2017-11-23T23:02:47.900Z,86.70
2017-11-23T23:03:52.238Z,86.60
2017-11-23T23:04:57.316Z,86.70
2017-11-23T23:06:01.657Z,86.70
2017-11-23T23:07:06.090Z,86.80
2017-11-23T23:08:11.234Z,86.70
2017-11-23T23:09:15.546Z,86.70
2017-11-23T23:10:19.879Z,86.40
2017-11-23T23:11:25.178Z,86.20
2017-11-23T23:12:29.566Z,86.10
2017-11-23T23:13:34.715Z,86.20
2017-11-23T23:14:39.181Z,86.20
2017-11-23T23:15:43.954Z,86.20
2017-11-23T23:16:48.798Z,86.20
2017-11-23T23:17:53.114Z,86.30
2017-11-23T23:18:58.225Z,85.80
2017-11-23T23:20:02.609Z,85.80
2017-11-23T23:21:06.943Z,85.70
2017-11-23T23:22:11.377Z,85.50
2017-11-23T23:23:16.365Z,85.50
2017-11-23T23:24:20.686Z,85.80
2017-11-23T23:25:25.274Z,85.60
2017-11-23T23:26:29.987Z,86.00
2017-11-23T23:27:34.612Z,86.30
2017-11-23T23:28:38.961Z,86.70
2017-11-23T23:29:44.139Z,87.10
2017-11-23T23:30:48.566Z,87.10
2017-11-23T23:31:52.891Z,87.10
2017-11-23T23:32:57.294Z,87.30
2017-11-23T23:34:01.672Z,87.40
2017-11-23T23:35:05.958Z,87.70
2017-11-23T23:36:11.104Z,87.70
2017-11-23T23:37:15.801Z,87.80
2017-11-23T23:38:20.838Z,87.80
2017-11-23T23:39:26.486Z,87.80
2017-11-23T23:40:30.815Z,87.90
2017-11-23T23:41:35.166Z,87.60
2017-11-23T23:42:40.298Z,87.50
2017-11-23T23:43:45.382Z,87.40
2017-11-23T23:44:49.700Z,87.40
2017-11-23T23:45:55.304Z,87.10
2017-11-23T23:46:59.815Z,87.00
2017-11-23T23:48:04.258Z,87.00
2017-11-23T23:49:08.656Z,86.80
2017-11-23T23:50:13.032Z,85.50
2017-11-23T23:51:17.398Z,86.00
2017-11-23T23:52:21.761Z,86.10
2017-11-23T23:53:26.742Z,86.10
2017-11-23T23:54:31.946Z,85.90
2017-11-23T23:55:36.534Z,86.10
2017-11-23T23:56:40.889Z,86.20
2017-11-23T23:57:45.301Z,85.90
2017-11-23T23:58:49.654Z,85.80
2017-11-23T23:59:54.036Z,85.70
